Terminal Aerodrome Forecast
Issued by NWS Buffalo, NY

Home | Current Version | Previous Version | Text Only | Print | Product List | Glossary On
Versions: 1 2 3 4 5 6 7 8 9 10 11 12 13 14 15 16 17 18 19 20 21 22 23 24 25 26 27 28 29 30
000
FTUS41 KBUF 302105 AAB
TAFBUF
TAF AMD
KBUF 302105Z 3021/0118 23010KT P6SM SCT030 BKN040
     FM010100 VRB03KT P6SM BKN040
     FM011100 23009KT P6SM OVC015
     FM011400 24012KT P6SM VCSH OVC035=

USA.gov is the U.S. government's official web portal to all federal, state and local government web resources and services.